createdAt,value
2017-08-30T00:00:57.154Z,20.57
2017-08-30T00:01:58.981Z,20.57
2017-08-30T00:03:00.799Z,20.57
2017-08-30T00:04:02.693Z,20.57
2017-08-30T00:05:04.579Z,20.57
2017-08-30T00:06:06.474Z,20.55
2017-08-30T00:07:20.635Z,20.54
2017-08-30T00:08:22.515Z,20.54
2017-08-30T00:09:24.400Z,20.58
2017-08-30T00:10:26.285Z,20.50
2017-08-30T00:11:28.108Z,20.57
2017-08-30T00:12:29.927Z,20.57
2017-08-30T00:13:31.810Z,20.52
2017-08-30T00:14:33.696Z,20.42
2017-08-30T00:15:35.581Z,20.38
2017-08-30T00:16:49.791Z,20.41
2017-08-30T00:17:51.673Z,20.32
2017-08-30T00:18:53.560Z,20.36
2017-08-30T00:19:55.441Z,20.31
2017-08-30T00:20:57.265Z,20.33
2017-08-30T00:21:59.086Z,20.24
2017-08-30T00:23:00.980Z,20.18
2017-08-30T00:24:02.864Z,20.24
2017-08-30T00:25:04.750Z,20.21
2017-08-30T00:26:18.957Z,20.18
2017-08-30T00:27:20.841Z,20.21
2017-08-30T00:28:22.730Z,20.21
2017-08-30T00:29:24.615Z,20.18
2017-08-30T00:30:26.451Z,20.18
2017-08-30T00:31:28.283Z,20.20
2017-08-30T00:32:30.167Z,20.23
2017-08-30T00:33:32.052Z,20.11
2017-08-30T00:34:33.935Z,20.16
2017-08-30T00:35:48.096Z,20.08
2017-08-30T00:36:49.978Z,20.08
2017-08-30T00:37:51.895Z,20.13
2017-08-30T00:38:54.102Z,20.03
2017-08-30T00:39:55.951Z,19.96
2017-08-30T00:40:57.774Z,20.05
2017-08-30T00:41:59.658Z,20.03
2017-08-30T00:43:01.543Z,20.01
2017-08-30T00:44:03.424Z,20.02
2017-08-30T00:45:17.596Z,20.10
2017-08-30T00:46:19.480Z,20.06
2017-08-30T00:47:21.372Z,20.11
2017-08-30T00:48:23.258Z,20.10
2017-08-30T00:49:25.083Z,20.11
2017-08-30T00:50:26.904Z,20.08
2017-08-30T00:51:28.801Z,20.13
2017-08-30T00:52:30.687Z,20.24
2017-08-30T00:53:32.571Z,20.24
2017-08-30T00:54:46.728Z,20.21
2017-08-30T00:55:48.622Z,20.21
2017-08-30T00:56:50.503Z,20.23
2017-08-30T00:57:52.385Z,20.17
2017-08-30T00:58:54.212Z,20.20
2017-08-30T00:59:56.033Z,20.20
2017-08-30T01:00:57.924Z,20.21
2017-08-30T01:01:59.808Z,20.21
2017-08-30T01:03:01.695Z,20.20
2017-08-30T01:04:15.855Z,20.21
2017-08-30T01:05:17.747Z,20.14
2017-08-30T01:06:19.634Z,20.10
2017-08-30T01:07:21.533Z,20.14
2017-08-30T01:08:23.358Z,20.08
2017-08-30T01:09:25.190Z,20.05
2017-08-30T01:10:27.073Z,19.94
2017-08-30T01:11:28.956Z,19.99
2017-08-30T01:12:30.837Z,20.01
2017-08-30T01:13:44.996Z,19.92
2017-08-30T01:14:46.893Z,19.88
2017-08-30T01:15:48.775Z,19.86
2017-08-30T01:16:50.658Z,19.91
2017-08-30T01:17:52.484Z,19.88
2017-08-30T01:18:54.304Z,19.99
2017-08-30T01:19:56.191Z,19.94
2017-08-30T01:20:58.075Z,19.87
2017-08-30T01:21:59.959Z,19.92
2017-08-30T01:23:14.118Z,19.99
2017-08-30T01:24:15.998Z,19.91
2017-08-30T01:25:17.883Z,19.88
2017-08-30T01:26:19.776Z,19.84
2017-08-30T01:27:21.599Z,19.87
2017-08-30T01:28:23.421Z,19.92
2017-08-30T01:29:25.315Z,19.86
2017-08-30T01:30:27.197Z,19.83
2017-08-30T01:31:29.081Z,19.91
2017-08-30T01:32:43.238Z,19.86
2017-08-30T01:33:45.122Z,19.81
2017-08-30T01:34:47.010Z,19.74
2017-08-30T01:35:48.885Z,19.77
2017-08-30T01:36:50.707Z,19.73
2017-08-30T01:37:52.531Z,19.74
2017-08-30T01:38:54.411Z,19.77
2017-08-30T01:39:56.294Z,19.84
2017-08-30T01:40:58.176Z,19.87
2017-08-30T01:42:12.335Z,19.87
2017-08-30T01:43:14.220Z,19.92
2017-08-30T01:44:16.114Z,19.86
2017-08-30T01:45:17.997Z,19.86
2017-08-30T01:46:19.816Z,19.88
2017-08-30T01:47:21.638Z,19.88
2017-08-30T01:48:23.520Z,19.80
2017-08-30T01:49:25.405Z,19.76
2017-08-30T01:50:27.289Z,19.71
2017-08-30T01:51:41.448Z,19.71
2017-08-30T01:52:43.332Z,19.65
2017-08-30T01:53:45.210Z,19.66
2017-08-30T01:54:47.089Z,19.66
2017-08-30T01:55:48.912Z,19.73
2017-08-30T01:56:50.733Z,19.69
2017-08-30T01:57:52.615Z,19.71
2017-08-30T01:58:54.499Z,19.77
2017-08-30T01:59:56.381Z,19.80
2017-08-30T02:01:10.537Z,19.83
2017-08-30T02:02:12.419Z,19.87
2017-08-30T02:03:14.302Z,19.92
2017-08-30T02:04:16.181Z,20.03
2017-08-30T02:05:18.005Z,19.95
2017-08-30T02:06:19.825Z,19.84
2017-08-30T02:07:21.707Z,19.87
2017-08-30T02:08:23.592Z,19.91
2017-08-30T02:09:25.473Z,19.86
2017-08-30T02:10:39.630Z,19.84
2017-08-30T02:11:41.510Z,19.91
2017-08-30T02:12:43.388Z,19.87
2017-08-30T02:13:45.270Z,19.88
2017-08-30T02:14:47.093Z,19.78
2017-08-30T02:15:48.914Z,19.74
2017-08-30T02:16:50.793Z,19.83
2017-08-30T02:17:52.678Z,19.84
2017-08-30T02:18:54.557Z,19.81
2017-08-30T02:20:08.713Z,19.83
2017-08-30T02:21:10.595Z,19.74
2017-08-30T02:22:12.474Z,19.77
2017-08-30T02:23:14.357Z,19.74
2017-08-30T02:24:16.180Z,19.77
2017-08-30T02:25:18.002Z,19.77
2017-08-30T02:26:19.882Z,19.74
2017-08-30T02:27:21.766Z,19.69
2017-08-30T02:28:23.647Z,19.76
2017-08-30T02:29:37.801Z,19.77
2017-08-30T02:30:39.683Z,19.69
2017-08-30T02:31:41.567Z,19.69
2017-08-30T02:32:43.448Z,19.59
2017-08-30T02:33:45.272Z,19.55
2017-08-30T02:34:47.092Z,19.59
2017-08-30T02:35:48.972Z,19.59
2017-08-30T02:36:50.865Z,19.54
2017-08-30T02:37:52.748Z,19.55
2017-08-30T02:39:06.907Z,19.51
2017-08-30T02:40:09.157Z,19.54
2017-08-30T02:41:11.108Z,19.56
2017-08-30T02:42:13.008Z,19.54
2017-08-30T02:43:14.909Z,19.43
2017-08-30T02:44:16.717Z,19.41
2017-08-30T02:45:18.599Z,19.39
2017-08-30T02:46:20.503Z,19.44
2017-08-30T02:47:22.397Z,19.55
2017-08-30T02:48:36.552Z,19.50
2017-08-30T02:49:38.433Z,19.55
2017-08-30T02:50:40.314Z,19.61
2017-08-30T02:51:42.195Z,19.62
2017-08-30T02:52:44.018Z,19.61
2017-08-30T02:53:45.837Z,19.63
2017-08-30T02:54:47.731Z,19.63
2017-08-30T02:55:49.614Z,19.58
2017-08-30T02:56:51.498Z,19.58
2017-08-30T02:58:05.650Z,19.56
2017-08-30T02:59:07.533Z,19.58
2017-08-30T03:00:09.415Z,19.56
2017-08-30T03:01:11.306Z,19.58
2017-08-30T03:02:13.118Z,19.61
2017-08-30T03:03:14.939Z,19.56
2017-08-30T03:04:16.820Z,19.58
2017-08-30T03:05:18.704Z,19.68
2017-08-30T03:06:20.586Z,19.77
2017-08-30T03:07:34.750Z,19.81
2017-08-30T03:08:36.632Z,19.87
2017-08-30T03:09:38.513Z,19.86
2017-08-30T03:10:40.396Z,19.94
2017-08-30T03:11:42.218Z,19.91
2017-08-30T03:12:44.040Z,19.88
2017-08-30T03:13:45.919Z,19.88
2017-08-30T03:14:47.814Z,19.88
2017-08-30T03:15:49.695Z,19.80
2017-08-30T03:17:03.850Z,19.76
2017-08-30T03:18:05.731Z,19.74
2017-08-30T03:19:07.611Z,19.73
2017-08-30T03:20:09.491Z,19.63
2017-08-30T03:21:11.313Z,19.59
2017-08-30T03:22:13.135Z,19.58
2017-08-30T03:23:15.016Z,19.50
2017-08-30T03:24:16.901Z,19.56
2017-08-30T03:25:18.785Z,19.58
2017-08-30T03:26:32.988Z,19.56
2017-08-30T03:27:34.869Z,19.48
2017-08-30T03:28:36.750Z,19.47
2017-08-30T03:29:38.636Z,19.56
2017-08-30T03:30:40.461Z,19.54
2017-08-30T03:31:42.273Z,19.43
2017-08-30T03:32:44.154Z,19.47
2017-08-30T03:33:46.039Z,19.41
2017-08-30T03:34:47.920Z,19.40
2017-08-30T03:36:02.077Z,19.54
2017-08-30T03:37:03.960Z,19.41
2017-08-30T03:38:05.852Z,19.36
2017-08-30T03:39:07.734Z,19.41
2017-08-30T03:40:09.566Z,19.47
2017-08-30T03:41:11.385Z,19.41
2017-08-30T03:42:13.266Z,19.43
2017-08-30T03:43:15.161Z,19.37
2017-08-30T03:44:17.044Z,19.44
2017-08-30T03:45:31.198Z,19.44
2017-08-30T03:46:33.082Z,19.50
2017-08-30T03:47:34.965Z,19.39
2017-08-30T03:48:36.846Z,19.44
2017-08-30T03:49:38.668Z,19.39
2017-08-30T03:50:40.489Z,19.43
2017-08-30T03:51:42.370Z,19.44
2017-08-30T03:52:44.265Z,19.36
2017-08-30T03:53:46.149Z,19.55
2017-08-30T03:55:00.314Z,19.50
2017-08-30T03:56:02.200Z,19.50
2017-08-30T03:57:04.078Z,19.41
2017-08-30T03:58:05.959Z,19.39
2017-08-30T03:59:07.787Z,19.43
2017-08-30T04:00:09.606Z,19.46
2017-08-30T04:01:11.503Z,19.33
2017-08-30T04:02:13.370Z,19.33
2017-08-30T04:03:15.256Z,19.41
2017-08-30T04:04:29.411Z,19.39
2017-08-30T04:05:31.297Z,19.41
2017-08-30T04:06:33.180Z,19.50
2017-08-30T04:07:35.062Z,19.54
2017-08-30T04:08:36.895Z,19.44
2017-08-30T04:09:38.733Z,19.44
2017-08-30T04:10:40.616Z,19.41
2017-08-30T04:11:42.518Z,19.54
2017-08-30T04:12:44.387Z,19.54
2017-08-30T04:13:58.546Z,19.54
2017-08-30T04:15:00.431Z,19.54
2017-08-30T04:16:02.315Z,19.58
2017-08-30T04:17:04.198Z,19.50
2017-08-30T04:18:06.025Z,19.41
2017-08-30T04:19:07.849Z,19.39
2017-08-30T04:20:09.736Z,19.50
2017-08-30T04:21:11.619Z,19.44
2017-08-30T04:22:13.520Z,19.56
2017-08-30T04:23:27.674Z,19.54
2017-08-30T04:24:29.560Z,19.56
2017-08-30T04:25:31.446Z,19.55
2017-08-30T04:26:33.330Z,19.58
2017-08-30T04:27:35.161Z,19.56
2017-08-30T04:28:36.983Z,19.56
2017-08-30T04:29:38.870Z,19.56
2017-08-30T04:30:40.755Z,19.61
2017-08-30T04:31:42.662Z,19.59
2017-08-30T04:32:56.851Z,19.69
2017-08-30T04:33:58.741Z,19.76
2017-08-30T04:35:00.623Z,19.77
2017-08-30T04:36:02.509Z,19.91
2017-08-30T04:37:04.337Z,19.91
2017-08-30T04:38:06.164Z,19.98
2017-08-30T04:39:08.047Z,20.11
2017-08-30T04:40:09.933Z,20.28
2017-08-30T04:41:11.816Z,20.39
2017-08-30T04:42:26.027Z,20.57
2017-08-30T04:43:27.914Z,20.72
2017-08-30T04:44:29.798Z,20.80
2017-08-30T04:45:31.682Z,20.79
2017-08-30T04:46:33.518Z,20.82
2017-08-30T04:47:35.348Z,20.89
2017-08-30T04:48:37.234Z,21.03
2017-08-30T04:49:39.122Z,21.01
2017-08-30T04:50:41.008Z,21.10
2017-08-30T04:51:55.169Z,21.12
2017-08-30T04:52:57.057Z,21.13
2017-08-30T04:53:58.941Z,21.17
2017-08-30T04:55:00.825Z,21.13
2017-08-30T04:56:02.651Z,21.17
2017-08-30T04:57:04.476Z,21.16
2017-08-30T04:58:06.362Z,21.29
2017-08-30T04:59:08.247Z,21.24
2017-08-30T05:00:10.136Z,21.27
2017-08-30T05:01:24.297Z,21.32
2017-08-30T05:02:26.187Z,21.28
2017-08-30T05:03:28.072Z,21.25
2017-08-30T05:04:30.082Z,21.31
2017-08-30T05:05:31.913Z,21.31
2017-08-30T05:06:33.740Z,21.31
2017-08-30T05:07:35.630Z,21.22
2017-08-30T05:08:37.514Z,21.14
2017-08-30T05:09:39.401Z,21.12
2017-08-30T05:10:53.561Z,21.01
2017-08-30T05:11:55.448Z,21.01
2017-08-30T05:12:57.336Z,20.98
2017-08-30T05:13:59.221Z,21.03
2017-08-30T05:15:01.048Z,21.01
2017-08-30T05:16:02.871Z,21.07
2017-08-30T05:17:04.757Z,21.01
2017-08-30T05:18:06.644Z,20.97
2017-08-30T05:19:08.530Z,20.89
2017-08-30T05:20:22.693Z,20.95
2017-08-30T05:21:24.576Z,20.89
2017-08-30T05:22:26.472Z,20.95
2017-08-30T05:23:28.361Z,20.94
2017-08-30T05:24:30.182Z,21.03
2017-08-30T05:25:32.007Z,20.99
2017-08-30T05:26:33.892Z,21.03
2017-08-30T05:27:35.781Z,21.03
2017-08-30T05:28:37.667Z,20.95
2017-08-30T05:29:51.837Z,20.92
2017-08-30T05:30:53.713Z,20.91
2017-08-30T05:31:55.609Z,20.97
2017-08-30T05:32:57.495Z,20.91
2017-08-30T05:33:59.323Z,20.87
2017-08-30T05:35:01.151Z,20.82
2017-08-30T05:36:03.036Z,20.91
2017-08-30T05:37:04.950Z,20.94
2017-08-30T05:38:06.837Z,20.94
2017-08-30T05:39:20.996Z,20.87
2017-08-30T05:40:22.884Z,20.87
2017-08-30T05:41:24.768Z,20.87
2017-08-30T05:42:26.654Z,20.92
2017-08-30T05:43:28.487Z,20.97
2017-08-30T05:44:30.311Z,21.01
2017-08-30T05:45:32.208Z,21.03
2017-08-30T05:46:34.097Z,21.10
2017-08-30T05:47:35.982Z,21.24
2017-08-30T05:48:50.145Z,21.25
2017-08-30T05:49:52.030Z,21.32
2017-08-30T05:50:53.914Z,21.32
2017-08-30T05:51:55.798Z,21.29
2017-08-30T05:52:57.626Z,21.24
2017-08-30T05:53:59.452Z,21.10
2017-08-30T05:55:01.339Z,21.12
2017-08-30T05:56:03.225Z,21.13
2017-08-30T05:57:05.121Z,21.28
2017-08-30T05:58:19.284Z,21.27
2017-08-30T05:59:21.169Z,21.28
2017-08-30T06:00:23.058Z,21.28
2017-08-30T06:01:24.941Z,21.27
2017-08-30T06:02:26.779Z,21.25
2017-08-30T06:03:28.595Z,21.34
2017-08-30T06:04:30.480Z,21.40
2017-08-30T06:05:32.367Z,21.46
2017-08-30T06:06:34.257Z,21.50
2017-08-30T06:07:48.418Z,21.44
2017-08-30T06:08:50.308Z,21.53
2017-08-30T06:09:52.194Z,21.50
2017-08-30T06:10:54.080Z,21.59
2017-08-30T06:11:55.908Z,21.69
2017-08-30T06:12:57.735Z,21.61
2017-08-30T06:13:59.621Z,21.68
2017-08-30T06:15:01.513Z,21.74
2017-08-30T06:16:03.402Z,21.77
2017-08-30T06:17:17.566Z,21.80
2017-08-30T06:18:19.453Z,21.86
2017-08-30T06:19:21.337Z,21.90
2017-08-30T06:20:23.222Z,21.91
2017-08-30T06:21:25.061Z,22.03
2017-08-30T06:22:26.899Z,22.00
2017-08-30T06:23:28.787Z,21.87
2017-08-30T06:24:30.676Z,21.82
2017-08-30T06:25:32.569Z,21.77
2017-08-30T06:26:46.732Z,21.82
2017-08-30T06:27:48.626Z,21.79
2017-08-30T06:28:50.516Z,21.77
2017-08-30T06:29:52.405Z,21.69
2017-08-30T06:30:54.237Z,21.82
2017-08-30T06:31:56.063Z,21.82
2017-08-30T06:32:57.952Z,21.77
2017-08-30T06:33:59.840Z,21.79
2017-08-30T06:35:01.728Z,21.80
2017-08-30T06:36:15.888Z,21.86
2017-08-30T06:37:17.777Z,21.91
2017-08-30T06:38:19.663Z,22.06
2017-08-30T06:39:21.550Z,22.05
2017-08-30T06:40:23.378Z,22.10
2017-08-30T06:41:25.209Z,22.14
2017-08-30T06:42:27.099Z,22.10
2017-08-30T06:43:28.992Z,22.28
2017-08-30T06:44:30.880Z,22.24
2017-08-30T06:45:45.043Z,22.35
2017-08-30T06:46:46.932Z,22.33
2017-08-30T06:47:48.819Z,22.22
2017-08-30T06:48:50.706Z,22.33
2017-08-30T06:49:52.534Z,22.33
2017-08-30T06:50:54.363Z,22.39
2017-08-30T06:51:56.250Z,22.35
2017-08-30T06:52:58.141Z,22.37
2017-08-30T06:54:00.030Z,22.30
2017-08-30T06:55:14.190Z,22.27
2017-08-30T06:56:16.078Z,22.15
2017-08-30T06:57:17.965Z,22.06
2017-08-30T06:58:19.854Z,22.00
2017-08-30T06:59:21.682Z,22.00
2017-08-30T07:00:23.509Z,22.00
2017-08-30T07:01:25.409Z,21.99
2017-08-30T07:02:27.288Z,22.07
2017-08-30T07:03:29.174Z,22.10
2017-08-30T07:04:43.349Z,22.17
2017-08-30T07:05:45.237Z,22.21
2017-08-30T07:06:47.137Z,22.33
2017-08-30T07:07:49.023Z,22.21
2017-08-30T07:08:50.856Z,22.17
2017-08-30T07:09:52.685Z,22.17
2017-08-30T07:10:54.572Z,22.15
2017-08-30T07:11:56.465Z,22.14
2017-08-30T07:12:58.356Z,22.12
2017-08-30T07:14:12.517Z,22.15
2017-08-30T07:15:14.407Z,22.10
2017-08-30T07:16:16.302Z,22.35
2017-08-30T07:17:18.199Z,22.24
2017-08-30T07:18:20.021Z,22.21
2017-08-30T07:19:21.850Z,22.17
2017-08-30T07:20:23.739Z,22.15
2017-08-30T07:21:25.629Z,22.12
2017-08-30T07:22:27.519Z,22.15
2017-08-30T07:23:41.696Z,22.27
2017-08-30T07:24:43.585Z,22.31
2017-08-30T07:25:45.478Z,22.33
2017-08-30T07:26:47.360Z,22.33
2017-08-30T07:27:49.194Z,22.33
2017-08-30T07:28:51.022Z,22.36
2017-08-30T07:29:52.909Z,22.28
2017-08-30T07:30:54.809Z,22.42
2017-08-30T07:31:56.699Z,22.36
2017-08-30T07:33:10.909Z,22.36
2017-08-30T07:34:12.798Z,22.31
2017-08-30T07:35:14.697Z,22.43
2017-08-30T07:36:16.585Z,22.45
2017-08-30T07:37:18.414Z,22.43
2017-08-30T07:38:20.243Z,22.60
2017-08-30T07:39:22.130Z,22.67
2017-08-30T07:40:24.029Z,22.77
2017-08-30T07:41:25.919Z,22.85
2017-08-30T07:42:40.086Z,22.72
2017-08-30T07:43:41.971Z,22.79
2017-08-30T07:44:43.870Z,22.77
2017-08-30T07:45:45.758Z,22.80
2017-08-30T07:46:47.587Z,22.88
2017-08-30T07:47:49.426Z,22.92
2017-08-30T07:48:51.303Z,22.91
2017-08-30T07:49:53.196Z,22.97
2017-08-30T07:50:55.085Z,22.85
2017-08-30T07:52:09.250Z,22.80
2017-08-30T07:53:11.140Z,22.72
2017-08-30T07:54:13.026Z,22.72
2017-08-30T07:55:14.914Z,22.77
2017-08-30T07:56:16.741Z,22.75
2017-08-30T07:57:18.579Z,22.82
2017-08-30T07:58:20.468Z,22.86
2017-08-30T07:59:22.361Z,22.94
2017-08-30T08:00:24.251Z,23.05
2017-08-30T08:01:38.419Z,22.98
2017-08-30T08:02:40.306Z,22.95
2017-08-30T08:03:42.202Z,22.98
2017-08-30T08:04:44.089Z,22.95
2017-08-30T08:05:45.931Z,23.04
2017-08-30T08:06:47.760Z,23.09
2017-08-30T08:07:49.649Z,23.17
2017-08-30T08:08:51.548Z,23.20
2017-08-30T08:09:53.442Z,23.09
2017-08-30T08:11:07.610Z,23.20
2017-08-30T08:12:09.501Z,23.00
2017-08-30T08:13:11.403Z,22.95
2017-08-30T08:14:13.290Z,22.82
2017-08-30T08:15:15.119Z,22.82
2017-08-30T08:16:16.949Z,22.82
2017-08-30T08:17:18.859Z,22.94
2017-08-30T08:18:20.760Z,23.12
2017-08-30T08:19:22.650Z,23.02
2017-08-30T08:20:36.818Z,23.02
2017-08-30T08:21:38.706Z,23.02
2017-08-30T08:22:40.600Z,22.80
2017-08-30T08:23:42.495Z,22.86
2017-08-30T08:24:44.325Z,22.98
2017-08-30T08:25:46.150Z,23.00
2017-08-30T08:26:48.036Z,23.07
2017-08-30T08:27:49.939Z,23.15
2017-08-30T08:28:51.831Z,23.25
2017-08-30T08:30:05.995Z,23.40
2017-08-30T08:31:07.887Z,23.53
2017-08-30T08:32:09.770Z,23.53
2017-08-30T08:33:11.659Z,23.40
2017-08-30T08:34:13.502Z,23.38
2017-08-30T08:35:15.334Z,23.33
2017-08-30T08:36:17.219Z,23.28
2017-08-30T08:37:19.109Z,23.22
2017-08-30T08:38:21.000Z,23.35
2017-08-30T08:39:35.166Z,23.35
2017-08-30T08:40:37.055Z,23.35
2017-08-30T08:41:38.942Z,23.31
2017-08-30T08:42:40.830Z,23.23
2017-08-30T08:43:42.661Z,23.20
2017-08-30T08:44:44.493Z,23.27
2017-08-30T08:45:46.379Z,23.28
2017-08-30T08:46:48.279Z,23.32
2017-08-30T08:47:50.172Z,23.47
2017-08-30T08:49:04.334Z,23.50
2017-08-30T08:50:06.222Z,23.58
2017-08-30T08:51:08.119Z,23.66
2017-08-30T08:52:10.005Z,23.76
2017-08-30T08:53:11.839Z,23.80
2017-08-30T08:54:13.665Z,23.87
2017-08-30T08:55:15.554Z,23.97
2017-08-30T08:56:17.464Z,24.02
2017-08-30T08:57:19.344Z,24.03
2017-08-30T08:58:33.510Z,24.13
2017-08-30T08:59:35.399Z,24.15
2017-08-30T09:00:37.288Z,24.21
2017-08-30T09:01:39.177Z,24.27
2017-08-30T09:02:41.004Z,24.22
2017-08-30T09:03:42.842Z,24.21
2017-08-30T09:04:44.729Z,24.15
2017-08-30T09:05:46.619Z,24.15
2017-08-30T09:06:48.509Z,24.25
2017-08-30T09:08:02.675Z,24.20
2017-08-30T09:09:04.564Z,24.28
2017-08-30T09:10:06.462Z,24.15
2017-08-30T09:11:08.348Z,24.27
2017-08-30T09:12:10.179Z,24.15
2017-08-30T09:13:12.009Z,24.31
2017-08-30T09:14:13.896Z,24.37
2017-08-30T09:15:15.790Z,24.39
2017-08-30T09:16:17.681Z,24.43
2017-08-30T09:17:31.854Z,24.43
2017-08-30T09:18:33.745Z,24.58
2017-08-30T09:19:35.635Z,24.58
2017-08-30T09:20:37.525Z,24.50
2017-08-30T09:21:39.354Z,24.46
2017-08-30T09:22:41.182Z,24.47
2017-08-30T09:23:43.075Z,24.50
2017-08-30T09:24:44.967Z,24.53
2017-08-30T09:25:46.858Z,24.52
2017-08-30T09:27:01.067Z,24.58
2017-08-30T09:28:02.958Z,24.57
2017-08-30T09:29:04.844Z,24.62
2017-08-30T09:30:06.735Z,24.69
2017-08-30T09:31:08.566Z,24.58
2017-08-30T09:32:10.395Z,24.58
2017-08-30T09:33:12.284Z,24.67
2017-08-30T09:34:14.177Z,24.68
2017-08-30T09:35:16.066Z,24.84
2017-08-30T09:36:30.234Z,24.78
2017-08-30T09:37:32.127Z,24.76
2017-08-30T09:38:34.015Z,24.81
2017-08-30T09:39:35.908Z,24.84
2017-08-30T09:40:37.734Z,24.83
2017-08-30T09:41:39.568Z,24.80
2017-08-30T09:42:41.456Z,24.88
2017-08-30T09:43:43.347Z,24.85
2017-08-30T09:44:45.236Z,24.87
2017-08-30T09:45:59.398Z,24.95
2017-08-30T09:47:01.292Z,24.96
2017-08-30T09:48:03.176Z,25.02
2017-08-30T09:49:05.064Z,25.15
2017-08-30T09:50:06.894Z,25.13
2017-08-30T09:51:08.723Z,25.06
2017-08-30T09:52:10.615Z,25.13
2017-08-30T09:53:12.504Z,25.15
2017-08-30T09:54:14.393Z,25.21
2017-08-30T09:55:28.593Z,25.21
2017-08-30T09:56:30.464Z,25.24
2017-08-30T09:57:32.344Z,25.30
2017-08-30T09:58:34.230Z,25.28
2017-08-30T09:59:36.062Z,25.39
2017-08-30T10:00:37.889Z,25.38
2017-08-30T10:01:39.780Z,25.33
2017-08-30T10:02:41.669Z,25.43
2017-08-30T10:03:43.587Z,25.38
2017-08-30T10:04:57.749Z,25.36
2017-08-30T10:05:59.640Z,25.36
2017-08-30T10:07:01.531Z,25.35
2017-08-30T10:08:03.420Z,25.39
2017-08-30T10:09:05.265Z,25.54
2017-08-30T10:10:07.112Z,25.51
2017-08-30T10:11:09.000Z,25.46
2017-08-30T10:12:10.893Z,25.54
2017-08-30T10:13:12.783Z,25.51
2017-08-30T10:14:26.952Z,25.54
2017-08-30T10:15:28.834Z,25.52
2017-08-30T10:16:30.737Z,25.57
2017-08-30T10:17:32.629Z,25.54
2017-08-30T10:18:34.464Z,25.57
2017-08-30T10:19:36.298Z,25.54
2017-08-30T10:20:38.185Z,25.50
2017-08-30T10:21:40.088Z,25.60
2017-08-30T10:22:41.976Z,25.51
2017-08-30T10:23:56.140Z,25.52
2017-08-30T10:24:58.029Z,25.55
2017-08-30T10:25:59.919Z,25.60
2017-08-30T10:27:01.807Z,25.60
2017-08-30T10:28:03.643Z,25.60
2017-08-30T10:29:05.485Z,25.67
2017-08-30T10:30:07.374Z,25.62
2017-08-30T10:31:09.264Z,25.62
2017-08-30T10:32:11.155Z,25.57
2017-08-30T10:33:25.333Z,25.55
2017-08-30T10:34:27.222Z,25.61
2017-08-30T10:35:29.121Z,25.61
2017-08-30T10:36:31.011Z,25.58
2017-08-30T10:37:32.842Z,25.65
2017-08-30T10:38:34.674Z,25.69
2017-08-30T10:39:36.563Z,25.67
2017-08-30T10:40:38.457Z,25.75
2017-08-30T10:41:40.349Z,25.75
2017-08-30T10:42:54.512Z,25.72
2017-08-30T10:43:56.403Z,25.65
2017-08-30T10:44:58.291Z,25.64
2017-08-30T10:46:00.179Z,25.72
2017-08-30T10:47:02.011Z,25.73
2017-08-30T10:48:03.841Z,25.75
2017-08-30T10:49:05.746Z,25.79
2017-08-30T10:50:07.646Z,25.79
2017-08-30T10:51:09.531Z,25.73
2017-08-30T10:52:23.710Z,25.80
2017-08-30T10:53:25.599Z,25.82
2017-08-30T10:54:27.493Z,25.77
2017-08-30T10:55:29.380Z,25.77
2017-08-30T10:56:31.212Z,25.76
2017-08-30T10:57:33.039Z,25.80
2017-08-30T10:58:34.939Z,25.83
2017-08-30T10:59:36.840Z,25.90
2017-08-30T11:00:38.730Z,25.85
2017-08-30T11:01:52.894Z,25.91
2017-08-30T11:02:54.788Z,25.91
2017-08-30T11:03:56.675Z,25.99
2017-08-30T11:04:58.565Z,25.98
2017-08-30T11:06:00.395Z,25.95
2017-08-30T11:07:02.231Z,25.91
2017-08-30T11:08:04.117Z,25.95
2017-08-30T11:09:06.014Z,25.99
2017-08-30T11:10:07.899Z,25.94
2017-08-30T11:11:22.061Z,25.91
2017-08-30T11:12:23.952Z,25.90
2017-08-30T11:13:25.843Z,25.90
2017-08-30T11:14:27.731Z,25.95
2017-08-30T11:15:29.563Z,25.95
2017-08-30T11:16:31.398Z,25.97
2017-08-30T11:17:33.285Z,26.06
2017-08-30T11:18:35.212Z,25.98
2017-08-30T11:19:37.104Z,26.02
2017-08-30T11:20:51.270Z,25.91
2017-08-30T11:21:53.162Z,26.01
2017-08-30T11:22:55.063Z,26.09
2017-08-30T11:23:56.958Z,26.13
2017-08-30T11:24:58.785Z,26.10
2017-08-30T11:26:00.616Z,26.13
2017-08-30T11:27:02.507Z,26.13
2017-08-30T11:28:04.397Z,26.10
2017-08-30T11:29:06.288Z,26.09
2017-08-30T11:30:20.454Z,26.21
2017-08-30T11:31:22.347Z,26.25
2017-08-30T11:32:24.233Z,26.23
2017-08-30T11:33:26.122Z,26.21
2017-08-30T11:34:27.952Z,26.28
2017-08-30T11:35:29.779Z,26.28
2017-08-30T11:36:31.671Z,26.30
2017-08-30T11:37:33.578Z,26.35
2017-08-30T11:38:35.461Z,26.32
2017-08-30T11:39:49.643Z,26.40
2017-08-30T11:40:51.522Z,26.40
2017-08-30T11:41:53.416Z,26.40
2017-08-30T11:42:55.309Z,26.39
2017-08-30T11:43:57.141Z,26.39
2017-08-30T11:44:58.971Z,26.47
2017-08-30T11:46:00.859Z,26.47
2017-08-30T11:47:02.762Z,26.51
2017-08-30T11:48:04.656Z,26.47
2017-08-30T11:49:18.820Z,26.57
2017-08-30T11:50:20.711Z,26.47
2017-08-30T11:51:22.597Z,26.48
2017-08-30T11:52:24.485Z,26.55
2017-08-30T11:53:26.319Z,26.51
2017-08-30T11:54:28.150Z,26.60
2017-08-30T11:55:30.042Z,26.55
2017-08-30T11:56:31.933Z,26.54
2017-08-30T11:57:33.830Z,26.51
2017-08-30T11:58:47.993Z,26.48
2017-08-30T11:59:49.883Z,26.58
2017-08-30T12:00:51.783Z,26.55
2017-08-30T12:01:53.674Z,26.57
2017-08-30T12:02:55.516Z,26.65
2017-08-30T12:03:57.337Z,26.63
2017-08-30T12:04:59.228Z,26.69
2017-08-30T12:06:01.122Z,26.69
2017-08-30T12:07:03.013Z,26.77
2017-08-30T12:08:17.177Z,26.73
2017-08-30T12:09:19.069Z,26.70
2017-08-30T12:10:20.967Z,26.76
2017-08-30T12:11:22.861Z,26.73
2017-08-30T12:12:24.691Z,26.70
2017-08-30T12:13:26.535Z,26.70
2017-08-30T12:14:28.410Z,26.81
2017-08-30T12:15:30.301Z,26.75
2017-08-30T12:16:32.193Z,26.75
2017-08-30T12:17:46.356Z,26.84
2017-08-30T12:18:48.251Z,26.84
2017-08-30T12:19:50.136Z,26.72
2017-08-30T12:20:52.025Z,26.77
2017-08-30T12:21:53.858Z,26.77
2017-08-30T12:22:55.687Z,26.72
2017-08-30T12:23:57.577Z,26.77
2017-08-30T12:24:59.487Z,26.84
2017-08-30T12:26:01.370Z,26.82
2017-08-30T12:27:15.534Z,26.84
2017-08-30T12:28:17.424Z,26.84
2017-08-30T12:29:19.324Z,26.88
2017-08-30T12:30:21.216Z,26.81
2017-08-30T12:31:23.048Z,26.80
2017-08-30T12:32:24.879Z,26.88
2017-08-30T12:33:26.774Z,26.95
2017-08-30T12:34:28.662Z,26.84
2017-08-30T12:35:30.553Z,26.85
2017-08-30T12:36:44.731Z,26.88
2017-08-30T12:37:46.617Z,26.82
2017-08-30T12:38:48.508Z,26.81
2017-08-30T12:39:50.397Z,26.85
2017-08-30T12:40:52.229Z,26.95
2017-08-30T12:41:54.057Z,26.97
2017-08-30T12:42:55.946Z,26.99
2017-08-30T12:43:57.850Z,26.91
2017-08-30T12:44:59.742Z,26.94
2017-08-30T12:46:13.957Z,27.04
2017-08-30T12:47:15.852Z,27.03
2017-08-30T12:48:17.737Z,26.99
2017-08-30T12:49:19.626Z,27.00
2017-08-30T12:50:21.458Z,26.99
2017-08-30T12:51:23.284Z,27.09
2017-08-30T12:52:25.186Z,27.02
2017-08-30T12:53:27.077Z,27.02
2017-08-30T12:54:28.995Z,27.04
2017-08-30T12:55:43.165Z,27.18
2017-08-30T12:56:45.053Z,27.13
2017-08-30T12:57:46.943Z,27.09
2017-08-30T12:58:48.830Z,27.18
2017-08-30T12:59:50.663Z,27.13
2017-08-30T13:00:52.493Z,27.17
2017-08-30T13:01:54.381Z,27.06
2017-08-30T13:02:56.275Z,27.14
2017-08-30T13:03:58.165Z,27.17
2017-08-30T13:05:12.331Z,27.17
2017-08-30T13:06:14.219Z,27.18
2017-08-30T13:07:16.109Z,27.12
2017-08-30T13:08:18.016Z,27.21
2017-08-30T13:09:19.832Z,27.10
2017-08-30T13:10:21.663Z,27.19
2017-08-30T13:11:23.554Z,27.10
2017-08-30T13:12:25.451Z,27.19
2017-08-30T13:13:27.342Z,27.14
2017-08-30T13:14:41.509Z,27.13
2017-08-30T13:15:43.407Z,27.12
2017-08-30T13:16:45.297Z,27.25
2017-08-30T13:17:47.196Z,27.27
2017-08-30T13:18:49.029Z,27.18
2017-08-30T13:19:50.862Z,27.25
2017-08-30T13:20:52.754Z,27.24
2017-08-30T13:21:55.004Z,27.34
2017-08-30T13:22:56.902Z,27.22
2017-08-30T13:24:11.067Z,27.28
2017-08-30T13:25:12.958Z,27.32
2017-08-30T13:26:14.847Z,27.27
2017-08-30T13:27:16.737Z,27.27
2017-08-30T13:28:18.568Z,27.31
2017-08-30T13:29:20.398Z,27.29
2017-08-30T13:30:22.288Z,27.28
2017-08-30T13:31:24.181Z,27.25
2017-08-30T13:32:26.097Z,27.31
2017-08-30T13:33:40.243Z,27.28
2017-08-30T13:34:42.135Z,27.29